createdAt,value
2023-06-10T00:04:47.925Z,92.5
2023-06-10T00:09:54.008Z,92.5
2023-06-10T00:15:00.045Z,92.5
2023-06-10T00:20:06.206Z,93
2023-06-10T00:25:12.515Z,94.5
2023-06-10T00:30:18.360Z,94
2023-06-10T00:35:24.460Z,94
2023-06-10T00:40:30.603Z,93.5
2023-06-10T00:45:36.811Z,92.5
2023-06-10T00:50:42.751Z,93
2023-06-10T00:55:49.084Z,93.5
2023-06-10T01:00:54.963Z,93.5
2023-06-10T01:06:01.044Z,93
2023-06-10T01:11:07.126Z,92.5
2023-06-10T01:16:13.210Z,92.5
2023-06-10T01:21:19.312Z,92.5
2023-06-10T01:26:31.089Z,93.5
2023-06-10T01:31:37.336Z,93
2023-06-10T01:36:43.474Z,93
2023-06-10T01:41:49.362Z,94
2023-06-10T01:46:55.471Z,92.5
2023-06-10T01:52:01.506Z,93
2023-06-10T01:57:07.621Z,94.5
2023-06-10T02:02:13.725Z,95
2023-06-10T02:07:19.813Z,96
2023-06-10T02:12:26.062Z,96.5
2023-06-10T02:17:32.008Z,96
2023-06-10T02:22:38.083Z,96
2023-06-10T02:27:44.178Z,96
2023-06-10T02:32:50.288Z,96
2023-06-10T02:37:56.357Z,95.5
2023-06-10T02:43:02.451Z,95.5
2023-06-10T02:48:08.576Z,95
2023-06-10T02:53:14.657Z,95
2023-06-10T02:58:20.764Z,94
2023-06-10T03:03:32.515Z,93.5
2023-06-10T03:08:38.599Z,94
2023-06-10T03:13:44.792Z,92
2023-06-10T03:18:50.800Z,93
2023-06-10T03:23:56.979Z,93.5
2023-06-10T03:29:03.161Z,94
2023-06-10T03:34:09.066Z,94.5
2023-06-10T03:39:15.259Z,95
2023-06-10T03:44:21.356Z,95.5
2023-06-10T03:49:27.329Z,95
2023-06-10T03:54:33.428Z,94
2023-06-10T03:59:39.524Z,95
2023-06-10T04:04:45.627Z,94.5
2023-06-10T04:09:51.717Z,95
2023-06-10T04:14:57.769Z,94
2023-06-10T04:20:03.902Z,95
2023-06-10T04:25:10.188Z,95
2023-06-10T04:30:16.202Z,96
2023-06-10T04:35:22.186Z,95.5
2023-06-10T04:40:33.919Z,94.5
2023-06-10T04:45:40.003Z,94.5
2023-06-10T04:50:46.109Z,94.5
2023-06-10T04:55:52.194Z,94.5
2023-06-10T05:00:58.277Z,94
2023-06-10T05:06:04.371Z,93
2023-06-10T05:11:10.494Z,92
2023-06-10T05:16:16.572Z,92.5
2023-06-10T05:21:22.698Z,93.5
2023-06-10T05:26:28.763Z,94.5
2023-06-10T05:31:35.094Z,95
2023-06-10T05:36:40.941Z,96.5
2023-06-10T05:41:47.048Z,95.5
2023-06-10T05:46:53.295Z,94.5
2023-06-10T05:51:59.446Z,95
2023-06-10T05:57:05.333Z,95
2023-06-10T06:02:11.455Z,93.5
2023-06-10T06:07:17.527Z,93.5
2023-06-10T06:12:23.655Z,94
2023-06-10T06:17:46.502Z,94
2023-06-10T06:22:52.586Z,94
2023-06-10T06:27:58.729Z,95
2023-06-10T06:33:04.883Z,94.5
2023-06-10T06:38:10.878Z,96.5
2023-06-10T06:43:16.994Z,96.5
2023-06-10T06:48:23.128Z,95
2023-06-10T06:53:31.810Z,94
2023-06-10T06:58:35.247Z,92
2023-06-10T07:03:41.567Z,93.5
2023-06-10T07:08:47.465Z,94
2023-06-10T07:13:53.560Z,94.5
2023-06-10T07:18:59.656Z,97
2023-06-10T07:24:05.763Z,97
2023-06-10T07:29:11.820Z,97
2023-06-10T07:34:18.037Z,96.5
2023-06-10T07:39:24.019Z,97
2023-06-10T07:44:30.135Z,96
2023-06-10T07:49:36.339Z,97
2023-06-10T07:54:48.125Z,97.5
2023-06-10T07:59:54.059Z,98.5
2023-06-10T08:05:00.194Z,98.5
2023-06-10T08:10:06.279Z,98.5
2023-06-10T08:15:12.457Z,98
2023-06-10T08:20:18.410Z,97.5
2023-06-10T08:25:24.660Z,97.5
2023-06-10T08:30:30.593Z,99
2023-06-10T08:35:36.691Z,97.5
2023-06-10T08:40:42.794Z,96.5
2023-06-10T08:45:48.876Z,96.5
2023-06-10T08:50:54.991Z,96.5
2023-06-10T08:56:01.081Z,93.5
2023-06-10T09:01:07.312Z,92.5
2023-06-10T09:06:13.282Z,94
2023-06-10T09:11:19.330Z,94.5
2023-06-10T09:16:25.515Z,92
2023-06-10T09:21:37.203Z,91.5
2023-06-10T09:26:48.905Z,92
2023-06-10T09:31:55.313Z,91
2023-06-10T09:37:01.098Z,90
2023-06-10T09:42:07.262Z,93.5
2023-06-10T09:47:13.313Z,93
2023-06-10T09:52:19.418Z,93
2023-06-10T09:57:25.515Z,91.5
2023-06-10T10:02:31.765Z,92
2023-06-10T10:07:37.722Z,88.5
2023-06-10T10:12:43.785Z,85.5
2023-06-10T10:17:49.988Z,77
2023-06-10T10:22:55.981Z,86
2023-06-10T10:28:02.148Z,82
2023-06-10T10:33:10.531Z,84.5
2023-06-10T10:38:14.268Z,85
2023-06-10T10:43:20.360Z,88.5
2023-06-10T10:48:26.473Z,92.5
2023-06-10T10:53:32.553Z,85.5
2023-06-10T10:58:38.625Z,90.5
2023-06-10T11:03:50.460Z,89.5
2023-06-10T11:08:57.720Z,89.5
2023-06-10T11:14:02.552Z,92
2023-06-10T11:19:08.652Z,89.5
2023-06-10T11:24:14.882Z,90.5
2023-06-10T11:29:20.912Z,90.5
2023-06-10T11:34:26.935Z,91
2023-06-10T11:39:33.273Z,87.5
2023-06-10T11:44:39.142Z,84
2023-06-10T11:49:46.497Z,87
2023-06-10T11:54:51.314Z,90
2023-06-10T11:59:57.416Z,91
2023-06-10T12:05:03.543Z,88.5
2023-06-10T12:10:26.176Z,87
2023-06-10T12:15:15.702Z,88
2023-06-10T12:20:21.824Z,85
2023-06-10T12:25:27.866Z,84
2023-06-10T12:30:34.130Z,83.5
2023-06-10T12:35:40.188Z,88
2023-06-10T12:40:51.819Z,92
2023-06-10T12:45:57.916Z,90.5
2023-06-10T12:51:04.278Z,90.5
2023-06-10T12:56:10.215Z,93.5
2023-06-10T13:01:16.213Z,92.5
2023-06-10T13:06:22.279Z,95.5
2023-06-10T13:11:28.419Z,92
2023-06-10T13:16:34.461Z,94.5
2023-06-10T13:21:41.616Z,91.5
2023-06-10T13:26:46.646Z,93
2023-06-10T13:31:52.895Z,89
2023-06-10T13:36:58.866Z,89.5
2023-06-10T13:42:04.947Z,92.5
2023-06-10T13:47:11.343Z,92.5
2023-06-10T13:52:17.139Z,89.5
2023-06-10T13:57:23.252Z,89
2023-06-10T14:02:29.368Z,86
2023-06-10T14:07:35.412Z,89
2023-06-10T14:12:41.530Z,88.5
2023-06-10T14:17:53.259Z,83.5
2023-06-10T14:22:59.341Z,86.5
2023-06-10T14:28:05.432Z,85
2023-06-10T14:33:11.568Z,88.5
2023-06-10T14:38:17.631Z,89
2023-06-10T14:43:23.743Z,86.5
2023-06-10T14:48:29.832Z,79
2023-06-10T14:53:35.899Z,82.5
2023-06-10T14:58:42.006Z,84
2023-06-10T15:03:48.164Z,86.5
2023-06-10T15:08:54.420Z,85
2023-06-10T15:14:00.402Z,87
2023-06-10T15:19:06.398Z,85.5
2023-06-10T15:24:12.583Z,88.5
2023-06-10T15:29:18.588Z,87
2023-06-10T15:34:24.671Z,82
2023-06-10T15:39:30.780Z,80
2023-06-10T15:44:36.869Z,82.5
2023-06-10T15:49:42.951Z,84
2023-06-10T15:55:00.294Z,87
2023-06-10T16:00:06.401Z,88
2023-06-10T16:05:12.685Z,85.5
2023-06-10T16:10:18.578Z,85.5
2023-06-10T16:15:24.791Z,85.5
2023-06-10T16:20:30.750Z,84.5
2023-06-10T16:25:36.874Z,86
2023-06-10T16:30:42.958Z,86
2023-06-10T16:35:49.050Z,88.5
2023-06-10T16:40:55.139Z,87.5
2023-06-10T16:46:01.346Z,87.5
2023-06-10T16:51:07.340Z,88
2023-06-10T16:56:13.527Z,88
2023-06-10T17:01:19.526Z,87.5
2023-06-10T17:06:25.611Z,88.5
2023-06-10T17:11:31.717Z,88.5
2023-06-10T17:16:37.867Z,90
2023-06-10T17:21:44.077Z,89.5
2023-06-10T17:26:49.972Z,89
2023-06-10T17:32:07.308Z,88.5
2023-06-10T17:37:13.412Z,89
2023-06-10T17:42:19.484Z,90
2023-06-10T17:47:25.605Z,89.5
2023-06-10T17:52:31.693Z,89
2023-06-10T17:57:37.766Z,90
2023-06-10T18:02:43.869Z,89
2023-06-10T18:07:49.957Z,90
2023-06-10T18:12:56.061Z,90.5
2023-06-10T18:18:02.203Z,90
2023-06-10T18:23:08.273Z,89.5
2023-06-10T18:28:14.353Z,90
2023-06-10T18:33:20.540Z,91.5
2023-06-10T18:38:27.100Z,90
2023-06-10T18:43:32.608Z,91
2023-06-10T18:48:38.776Z,90.5
2023-06-10T18:53:44.835Z,90.5
2023-06-10T18:58:51.059Z,90.5
2023-06-10T19:03:57.011Z,91.5
2023-06-10T19:09:08.836Z,91.5
2023-06-10T19:14:14.989Z,91.5
2023-06-10T19:19:21.599Z,92
2023-06-10T19:24:27.105Z,92.5
2023-06-10T19:29:33.130Z,93
2023-06-10T19:34:39.206Z,92.5
2023-06-10T19:39:45.509Z,92
2023-06-10T19:44:51.412Z,93
2023-06-10T19:49:57.491Z,93
2023-06-10T19:55:03.617Z,93
2023-06-10T20:00:09.684Z,91.5
2023-06-10T20:05:15.791Z,92
2023-06-10T20:10:21.871Z,92.5
2023-06-10T20:15:27.976Z,91.5
2023-06-10T20:20:34.156Z,91
2023-06-10T20:25:40.199Z,91.5
2023-06-10T20:30:46.503Z,92
2023-06-10T20:35:52.362Z,91
2023-06-10T20:40:58.413Z,91
2023-06-10T20:46:10.452Z,91
2023-06-10T20:51:16.244Z,91
2023-06-10T20:56:22.354Z,91
2023-06-10T21:01:28.558Z,90.5
2023-06-10T21:11:40.909Z,90.5
2023-06-10T21:16:46.782Z,91
2023-06-10T21:21:52.955Z,92
2023-06-10T21:26:58.977Z,92
2023-06-10T21:32:05.041Z,92.5
2023-06-10T21:37:11.110Z,93
2023-06-10T21:42:17.229Z,93.5
2023-06-10T21:47:23.315Z,93.5
2023-06-10T21:52:29.419Z,93
2023-06-10T21:57:35.499Z,93.5
2023-06-10T22:02:41.756Z,93.5
2023-06-10T22:07:47.674Z,94.5
2023-06-10T22:12:53.767Z,93.5
2023-06-10T22:17:59.885Z,94
2023-06-10T22:23:05.959Z,94
2023-06-10T22:28:17.684Z,94
2023-06-10T22:33:23.792Z,94.5
2023-06-10T22:38:29.872Z,94
2023-06-10T22:43:35.971Z,94
2023-06-10T22:48:42.121Z,94.5
2023-06-10T22:53:48.157Z,95
2023-06-10T22:58:54.261Z,94.5
2023-06-10T23:04:00.438Z,94.5
2023-06-10T23:09:06.457Z,94
2023-06-10T23:14:12.559Z,94.5
2023-06-10T23:19:18.645Z,94
2023-06-10T23:24:24.779Z,95.5
2023-06-10T23:29:30.817Z,96
2023-06-10T23:34:36.945Z,94.5
2023-06-10T23:39:43.288Z,94.5
2023-06-10T23:44:49.126Z,94.5
2023-06-10T23:49:55.210Z,95.5
2023-06-10T23:55:01.350Z,95.5
